createdAt,value
2019-03-29T00:01:22.887Z,103210.91
2019-03-29T00:03:52.393Z,103204.88
2019-03-29T00:06:21.561Z,103203.70
2019-03-29T00:08:51.406Z,103195.34
2019-03-29T00:11:20.911Z,103197.89
2019-03-29T00:13:50.214Z,103192.55
2019-03-29T00:16:19.353Z,103192.47
2019-03-29T00:18:48.932Z,103197.84
2019-03-29T00:21:18.387Z,103196.55
2019-03-29T00:23:48.375Z,103195.53
2019-03-29T00:26:18.112Z,103190.29
2019-03-29T00:28:47.306Z,103190.45
2019-03-29T00:31:16.751Z,103193.55
2019-03-29T00:33:46.253Z,103188.70
2019-03-29T00:36:16.016Z,103182.55
2019-03-29T00:38:45.783Z,103191.94
2019-03-29T00:41:15.007Z,103187.73
2019-03-29T00:43:44.790Z,103185.58
2019-03-29T00:46:13.977Z,103185.59
2019-03-29T00:48:43.189Z,103186.16
2019-03-29T00:51:12.694Z,103181.27
2019-03-29T00:53:42.539Z,103187.66
2019-03-29T00:56:13.003Z,103184.22
2019-03-29T00:58:42.543Z,103178.84
2019-03-29T01:01:12.256Z,103171.94
2019-03-29T01:03:41.428Z,103170.92
2019-03-29T01:06:10.955Z,103177.72
2019-03-29T01:08:40.872Z,103171.44
2019-03-29T01:11:10.091Z,103171.44
2019-03-29T01:13:39.575Z,103166.21
2019-03-29T01:16:09.082Z,103165.41
2019-03-29T01:18:38.345Z,103155.23
2019-03-29T01:21:07.786Z,103169.45
2019-03-29T01:23:37.298Z,103161.93
2019-03-29T01:26:06.899Z,103167.69
2019-03-29T01:28:36.612Z,103165.13
2019-03-29T01:31:05.873Z,103157.84
2019-03-29T01:33:35.732Z,103160.34
2019-03-29T01:36:05.235Z,103158.67
2019-03-29T01:38:34.761Z,103158.67
2019-03-29T01:41:04.254Z,103155.40
2019-03-29T01:43:33.506Z,103156.58
2019-03-29T01:46:02.766Z,103158.41
2019-03-29T01:48:31.965Z,103147.34
2019-03-29T01:51:02.035Z,103156.17
2019-03-29T01:53:31.339Z,103148.23
2019-03-29T01:56:01.613Z,103149.11
2019-03-29T01:58:30.805Z,103144.52
2019-03-29T02:01:00.092Z,103138.63
2019-03-29T02:03:29.607Z,103138.63
2019-03-29T02:05:59.113Z,103140.38
2019-03-29T02:08:35.717Z,103133.20
2019-03-29T02:10:59.845Z,103138.70
2019-03-29T02:13:29.011Z,103141.52
2019-03-29T02:15:58.191Z,103146.69
2019-03-29T02:18:27.431Z,103145.08
2019-03-29T02:20:56.689Z,103138.53
2019-03-29T02:23:26.187Z,103136.03
2019-03-29T02:25:55.661Z,103139.48
2019-03-29T02:28:24.892Z,103134.09
2019-03-29T02:33:30.221Z,103136.98
2019-03-29T02:35:59.867Z,103128.43
2019-03-29T02:38:29.512Z,103130.16
2019-03-29T02:40:59.465Z,103130.16
2019-03-29T02:43:28.966Z,103124.66
2019-03-29T02:46:01.516Z,103128.53
2019-03-29T02:48:31.160Z,103125.05
2019-03-29T02:51:00.766Z,103125.05
2019-03-29T02:53:30.015Z,103124.67
2019-03-29T02:55:59.567Z,103124.67
2019-03-29T02:58:28.791Z,103122.77
2019-03-29T03:00:58.321Z,103136.50
2019-03-29T03:03:27.918Z,103128.86
2019-03-29T03:05:57.399Z,103128.86
2019-03-29T03:08:26.898Z,103141.19
2019-03-29T03:10:56.214Z,103144.74
2019-03-29T03:13:26.131Z,103144.74
2019-03-29T03:15:55.618Z,103122.20
2019-03-29T03:18:24.856Z,103130.45
2019-03-29T03:20:54.032Z,103120.11
2019-03-29T03:23:23.477Z,103138.50
2019-03-29T03:25:53.032Z,103138.50
2019-03-29T03:28:22.526Z,103135.63
2019-03-29T03:30:51.788Z,103136.19
2019-03-29T03:33:21.845Z,103135.01
2019-03-29T03:35:51.041Z,103143.55
2019-03-29T03:38:20.550Z,103140.76
2019-03-29T03:40:50.169Z,103140.76
2019-03-29T03:43:19.793Z,103144.63
2019-03-29T03:45:49.298Z,103141.56
2019-03-29T03:48:18.903Z,103139.30
2019-03-29T03:50:48.101Z,103140.97
2019-03-29T03:53:17.693Z,103145.17
2019-03-29T03:55:47.012Z,103145.17
2019-03-29T03:58:18.104Z,103131.11
2019-03-29T04:00:53.989Z,103129.82
2019-03-29T04:03:23.874Z,103129.82
2019-03-29T04:05:53.125Z,103134.52
2019-03-29T04:08:23.119Z,103134.52
2019-03-29T04:10:52.320Z,103124.87
2019-03-29T04:13:21.819Z,103130.24
2019-03-29T04:15:51.328Z,103129.27
2019-03-29T04:18:20.836Z,103125.19
2019-03-29T04:20:50.417Z,103132.22
2019-03-29T04:23:19.618Z,103132.22
2019-03-29T04:25:49.006Z,103128.03
2019-03-29T04:28:18.452Z,103128.03
2019-03-29T04:30:48.129Z,103131.09
2019-03-29T04:33:17.665Z,103130.14
2019-03-29T04:35:47.814Z,103130.14
2019-03-29T04:38:17.393Z,103119.72
2019-03-29T04:40:46.593Z,103131.63
2019-03-29T04:43:16.402Z,103122.67
2019-03-29T04:45:46.212Z,103122.67
2019-03-29T04:48:15.471Z,103128.13
2019-03-29T04:50:44.990Z,103130.19
2019-03-29T04:53:14.421Z,103130.19
2019-03-29T04:55:44.033Z,103126.07
2019-03-29T04:58:13.263Z,103123.24
2019-03-29T05:00:43.044Z,103125.53
2019-03-29T05:03:12.660Z,103127.10
2019-03-29T05:05:42.261Z,103127.42
2019-03-29T05:08:11.425Z,103131.66
2019-03-29T05:10:41.480Z,103125.07
2019-03-29T05:13:10.999Z,103128.66
2019-03-29T05:15:40.196Z,103125.09
2019-03-29T05:18:09.695Z,103120.34
2019-03-29T05:20:39.604Z,103123.35
2019-03-29T05:23:09.111Z,103121.22
2019-03-29T05:25:39.643Z,103122.70
2019-03-29T05:28:09.162Z,103116.94
2019-03-29T05:30:38.653Z,103115.79
2019-03-29T05:33:11.128Z,103118.45
2019-03-29T05:35:40.945Z,103122.48
2019-03-29T05:38:10.141Z,103118.97
2019-03-29T05:40:40.354Z,103117.60
2019-03-29T05:43:09.867Z,103122.70
2019-03-29T05:45:39.068Z,103115.55
2019-03-29T05:48:08.570Z,103116.84
2019-03-29T05:50:38.070Z,103115.22
2019-03-29T05:53:07.897Z,103111.61
2019-03-29T05:55:37.956Z,103112.62
2019-03-29T05:58:08.156Z,103109.05
2019-03-29T06:00:37.465Z,103111.62
2019-03-29T06:03:10.139Z,103111.62
2019-03-29T06:05:39.753Z,103122.91
2019-03-29T06:08:09.390Z,103114.45
2019-03-29T06:10:49.023Z,103097.59
2019-03-29T06:13:10.583Z,103118.05
2019-03-29T06:15:39.786Z,103106.72
2019-03-29T06:18:08.985Z,103121.26
2019-03-29T06:20:38.383Z,103117.91
2019-03-29T06:23:07.913Z,103112.66
2019-03-29T06:25:37.112Z,103097.64
2019-03-29T06:28:06.597Z,103094.63
2019-03-29T06:30:36.212Z,103108.59
2019-03-29T06:33:05.810Z,103108.59
2019-03-29T06:35:38.341Z,103105.93
2019-03-29T06:38:09.461Z,103099.44
2019-03-29T06:40:39.040Z,103095.62
2019-03-29T06:43:08.232Z,103090.50
2019-03-29T06:45:47.701Z,103103.98
2019-03-29T06:48:08.434Z,103104.86
2019-03-29T06:50:38.027Z,103104.52
2019-03-29T06:53:07.800Z,103101.34
2019-03-29T06:55:37.402Z,103110.77
2019-03-29T06:58:07.329Z,103106.94
2019-03-29T07:00:36.508Z,103102.24
2019-03-29T07:03:05.697Z,103106.07
2019-03-29T07:05:34.900Z,103099.97
2019-03-29T07:08:04.522Z,103099.97
2019-03-29T07:10:34.029Z,103108.53
2019-03-29T07:13:03.206Z,103094.05
2019-03-29T07:15:33.038Z,103106.83
2019-03-29T07:18:02.214Z,103098.41
2019-03-29T07:20:31.375Z,103109.21
2019-03-29T07:23:00.993Z,103107.16
2019-03-29T07:25:30.473Z,103113.52
2019-03-29T07:27:59.623Z,103118.59
2019-03-29T07:30:30.073Z,103113.71
2019-03-29T07:32:59.259Z,103118.02
2019-03-29T07:35:28.855Z,103113.23
2019-03-29T07:37:58.396Z,103113.30
2019-03-29T07:40:27.889Z,103121.86
2019-03-29T07:42:57.112Z,103117.39
2019-03-29T07:45:26.593Z,103121.16
2019-03-29T07:47:56.411Z,103121.64
2019-03-29T07:50:26.017Z,103115.61
2019-03-29T07:52:56.133Z,103122.35
2019-03-29T07:55:26.471Z,103113.19
2019-03-29T07:57:56.272Z,103115.67
2019-03-29T08:00:26.084Z,103115.95
2019-03-29T08:02:55.771Z,103105.91
2019-03-29T08:05:25.229Z,103109.22
2019-03-29T08:07:54.484Z,103113.95
2019-03-29T08:10:29.138Z,103103.20
2019-03-29T08:12:55.645Z,103105.37
2019-03-29T08:15:25.083Z,103109.73
2019-03-29T08:17:54.611Z,103106.84
2019-03-29T08:20:39.313Z,103099.93
2019-03-29T08:22:55.042Z,103098.39
2019-03-29T08:25:24.238Z,103096.98
2019-03-29T08:27:53.432Z,103095.97
2019-03-29T08:30:22.919Z,103091.87
2019-03-29T08:32:52.422Z,103090.17
2019-03-29T08:35:21.685Z,103097.23
2019-03-29T08:37:51.254Z,103099.43
2019-03-29T08:40:20.466Z,103096.09
2019-03-29T08:42:50.129Z,103087.17
2019-03-29T08:45:19.280Z,103092.43
2019-03-29T08:47:48.517Z,103093.73
2019-03-29T08:50:18.354Z,103086.37
2019-03-29T08:52:47.897Z,103086.86
2019-03-29T08:55:17.879Z,103083.73
2019-03-29T08:57:47.180Z,103088.59
2019-03-29T09:00:25.238Z,103075.78
2019-03-29T09:02:54.500Z,103079.88
2019-03-29T09:05:23.988Z,103074.16
2019-03-29T09:07:53.609Z,103072.27
2019-03-29T09:10:25.286Z,103065.16
2019-03-29T09:12:55.170Z,103068.23
2019-03-29T09:15:25.082Z,103070.98
2019-03-29T09:17:54.795Z,103073.23
2019-03-29T09:20:24.042Z,103073.23
2019-03-29T09:22:53.502Z,103062.04
2019-03-29T09:25:23.505Z,103068.97
2019-03-29T09:27:52.791Z,103066.16
2019-03-29T09:30:22.079Z,103063.03
2019-03-29T09:32:51.880Z,103059.75
2019-03-29T09:35:21.231Z,103058.36
2019-03-29T09:37:50.464Z,103047.61
2019-03-29T09:40:20.349Z,103055.33
2019-03-29T09:42:55.778Z,103056.63
2019-03-29T09:45:20.913Z,103045.93
2019-03-29T09:47:50.079Z,103038.39
2019-03-29T09:50:22.752Z,103031.69
2019-03-29T09:52:51.507Z,103029.70
2019-03-29T09:55:24.146Z,103023.27
2019-03-29T09:57:53.371Z,103015.27
2019-03-29T10:00:23.740Z,103020.53
2019-03-29T10:02:53.448Z,103013.96
2019-03-29T10:05:23.286Z,103012.02
2019-03-29T10:07:52.809Z,103003.19
2019-03-29T10:10:22.405Z,102998.00
2019-03-29T10:12:51.620Z,102996.89
2019-03-29T10:15:21.417Z,102987.85
2019-03-29T10:17:51.043Z,102990.05
2019-03-29T10:20:20.320Z,103004.59
2019-03-29T10:22:49.823Z,102991.48
2019-03-29T10:25:20.395Z,102996.63
2019-03-29T10:27:50.098Z,103012.83
2019-03-29T10:30:38.181Z,102994.00
2019-03-29T10:33:07.825Z,102994.52
2019-03-29T10:35:50.889Z,102998.80
2019-03-29T10:38:09.285Z,102991.98
2019-03-29T10:40:38.793Z,102998.45
2019-03-29T10:43:07.998Z,102988.02
2019-03-29T10:45:40.392Z,102985.80
2019-03-29T10:48:08.950Z,102974.48
2019-03-29T10:50:38.466Z,102968.34
2019-03-29T10:53:07.651Z,102973.52
2019-03-29T10:55:37.157Z,102976.09
2019-03-29T10:58:09.522Z,102966.62
2019-03-29T11:00:39.544Z,102967.75
2019-03-29T11:03:09.223Z,102961.61
2019-03-29T11:05:39.053Z,102959.63
2019-03-29T11:08:11.589Z,102964.39
2019-03-29T11:10:40.089Z,102953.77
2019-03-29T11:13:14.306Z,102973.69
2019-03-29T11:15:41.502Z,102954.54
2019-03-29T11:18:11.004Z,102959.34
2019-03-29T11:20:40.616Z,102942.59
2019-03-29T11:23:09.914Z,102934.84
2019-03-29T11:25:39.518Z,102945.08
2019-03-29T11:28:08.697Z,102934.47
2019-03-29T11:30:42.605Z,102933.91
2019-03-29T11:33:09.342Z,102932.69
2019-03-29T11:35:38.652Z,102937.80
2019-03-29T11:38:08.179Z,102940.61
2019-03-29T11:40:37.687Z,102935.93
2019-03-29T11:43:07.182Z,102923.45
2019-03-29T11:45:36.688Z,102921.49
2019-03-29T11:48:09.014Z,102932.98
2019-03-29T11:50:37.751Z,102909.40
2019-03-29T11:53:07.264Z,102913.31
2019-03-29T11:55:36.489Z,102916.96
2019-03-29T11:58:05.734Z,102901.05
2019-03-29T12:00:36.593Z,102899.75
2019-03-29T12:03:09.045Z,102895.08
2019-03-29T12:05:37.462Z,102895.77
2019-03-29T12:08:07.467Z,102896.09
2019-03-29T12:10:36.795Z,102887.65
2019-03-29T12:13:08.333Z,102893.05
2019-03-29T12:15:37.904Z,102893.22
2019-03-29T12:18:07.531Z,102897.36
2019-03-29T12:20:36.771Z,102891.12
2019-03-29T12:23:06.112Z,102896.75
2019-03-29T12:25:35.641Z,102885.10
2019-03-29T12:28:04.902Z,102879.35
2019-03-29T12:30:34.855Z,102882.88
2019-03-29T12:33:04.237Z,102886.20
2019-03-29T12:35:33.823Z,102878.36
2019-03-29T12:38:03.510Z,102882.20
2019-03-29T12:40:33.088Z,102873.38
2019-03-29T12:43:02.616Z,102874.91
2019-03-29T12:45:32.505Z,102888.20
2019-03-29T12:48:01.702Z,102876.22
2019-03-29T12:50:31.520Z,102867.09
2019-03-29T12:53:01.029Z,102870.96
2019-03-29T12:55:30.841Z,102858.30
2019-03-29T12:58:00.347Z,102852.56
2019-03-29T13:00:29.937Z,102857.33
2019-03-29T13:02:59.773Z,102859.23
2019-03-29T13:05:29.285Z,102849.50
2019-03-29T13:07:58.500Z,102847.95
2019-03-29T13:10:28.076Z,102845.68
2019-03-29T13:13:00.329Z,102838.44
2019-03-29T13:15:28.712Z,102845.25
2019-03-29T13:17:57.968Z,102838.45
2019-03-29T13:20:27.454Z,102835.44
2019-03-29T13:22:57.027Z,102830.38
2019-03-29T13:25:26.203Z,102828.84
2019-03-29T13:27:59.221Z,102824.70
2019-03-29T13:30:26.735Z,102816.41
2019-03-29T13:32:55.904Z,102811.45
2019-03-29T13:35:25.110Z,102808.23
2019-03-29T13:37:54.591Z,102808.59
2019-03-29T13:40:23.848Z,102805.29
2019-03-29T13:42:53.923Z,102794.93
2019-03-29T13:45:23.106Z,102791.23
2019-03-29T13:47:53.021Z,102797.92
2019-03-29T13:50:22.758Z,102792.20
2019-03-29T13:52:52.234Z,102790.52
2019-03-29T13:55:21.836Z,102783.02
2019-03-29T13:57:51.009Z,102779.61
2019-03-29T14:00:20.440Z,102772.39
2019-03-29T14:02:49.726Z,102767.45
2019-03-29T14:05:19.274Z,102766.47
2019-03-29T14:07:49.575Z,102764.58
2019-03-29T14:10:18.883Z,102761.78
2019-03-29T14:12:48.108Z,102760.14
2019-03-29T14:15:17.705Z,102745.27
2019-03-29T14:17:47.184Z,102745.72
2019-03-29T14:20:23.755Z,102739.26
2019-03-29T14:22:53.479Z,102730.90
2019-03-29T14:25:22.973Z,102731.60
2019-03-29T14:27:52.203Z,102730.23
2019-03-29T14:30:21.459Z,102724.34
2019-03-29T14:32:50.781Z,102726.64
2019-03-29T14:35:19.976Z,102714.22
2019-03-29T14:37:49.195Z,102714.02
2019-03-29T14:40:18.905Z,102707.56
2019-03-29T14:42:48.083Z,102706.17
2019-03-29T14:45:17.383Z,102702.20
2019-03-29T14:47:46.996Z,102706.62
2019-03-29T14:50:16.696Z,102701.94
2019-03-29T14:52:46.619Z,102693.72
2019-03-29T14:55:16.121Z,102689.11
2019-03-29T14:57:45.528Z,102693.00
2019-03-29T15:00:16.160Z,102693.23
2019-03-29T15:02:45.558Z,102687.20
2019-03-29T15:05:14.811Z,102694.25
2019-03-29T15:07:44.195Z,102681.41
2019-03-29T15:10:26.874Z,102676.42
2019-03-29T15:12:56.796Z,102672.47
2019-03-29T15:15:26.360Z,102675.39
2019-03-29T15:17:55.716Z,102667.99
2019-03-29T15:20:25.100Z,102664.88
2019-03-29T15:22:54.608Z,102663.13
2019-03-29T15:25:24.111Z,102657.16
2019-03-29T15:27:53.728Z,102656.77
2019-03-29T15:30:23.648Z,102658.23
2019-03-29T15:32:53.483Z,102661.96
2019-03-29T15:35:22.851Z,102658.66
2019-03-29T15:37:52.054Z,102643.12
2019-03-29T15:40:21.760Z,102645.11
2019-03-29T15:42:51.574Z,102656.24
2019-03-29T15:45:21.320Z,102653.47
2019-03-29T15:47:50.742Z,102644.61
2019-03-29T15:50:20.043Z,102641.61
2019-03-29T15:52:49.607Z,102638.11
2019-03-29T15:55:18.900Z,102641.96
2019-03-29T15:57:48.061Z,102642.04
2019-03-29T16:00:17.710Z,102633.16
2019-03-29T16:02:47.354Z,102637.47
2019-03-29T16:05:16.620Z,102634.56
2019-03-29T16:07:45.792Z,102631.48
2019-03-29T16:10:15.071Z,102626.23
2019-03-29T16:12:44.621Z,102622.22
2019-03-29T16:15:13.798Z,102618.31
2019-03-29T16:17:43.133Z,102624.20
2019-03-29T16:20:12.659Z,102622.20
2019-03-29T16:22:41.856Z,102623.63
2019-03-29T16:25:11.940Z,102619.84
2019-03-29T16:27:42.170Z,102621.16
2019-03-29T16:30:12.289Z,102617.20
2019-03-29T16:32:41.795Z,102610.97
2019-03-29T16:35:11.408Z,102610.38
2019-03-29T16:37:40.636Z,102613.70
2019-03-29T16:40:09.896Z,102615.36
2019-03-29T16:42:39.066Z,102616.71
2019-03-29T16:45:09.231Z,102614.73
2019-03-29T16:47:38.499Z,102611.82
2019-03-29T16:50:08.403Z,102609.06
2019-03-29T16:52:38.249Z,102600.06
2019-03-29T16:55:13.750Z,102593.91
2019-03-29T16:57:40.213Z,102594.72
2019-03-29T17:00:12.414Z,102593.09
2019-03-29T17:02:41.909Z,102592.69
2019-03-29T17:05:11.484Z,102595.56
2019-03-29T17:07:40.695Z,102588.23
2019-03-29T17:10:10.623Z,102594.00
2019-03-29T17:12:39.842Z,102588.80
2019-03-29T17:15:09.429Z,102591.31
2019-03-29T17:17:38.936Z,102586.73
2019-03-29T17:20:09.219Z,102589.77
2019-03-29T17:22:38.713Z,102587.02
2019-03-29T17:25:08.989Z,102591.11
2019-03-29T17:27:38.497Z,102590.70
2019-03-29T17:30:09.389Z,102596.78
2019-03-29T17:32:48.041Z,102588.06
2019-03-29T17:35:17.682Z,102588.25
2019-03-29T17:37:47.171Z,102587.80
2019-03-29T17:40:16.685Z,102588.55
2019-03-29T17:42:46.591Z,102591.12
2019-03-29T17:45:16.031Z,102587.95
2019-03-29T17:47:45.909Z,102585.56
2019-03-29T17:50:15.716Z,102586.00
2019-03-29T17:52:45.553Z,102579.73
2019-03-29T17:55:14.806Z,102579.66
2019-03-29T17:57:44.056Z,102587.22
2019-03-29T18:00:15.180Z,102584.08
2019-03-29T18:02:44.678Z,102579.82
2019-03-29T18:05:14.197Z,102579.91
2019-03-29T18:07:43.591Z,102576.68
2019-03-29T18:10:13.097Z,102583.11
2019-03-29T18:12:42.928Z,102585.11
2019-03-29T18:15:12.971Z,102586.33
2019-03-29T18:17:42.207Z,102586.78
2019-03-29T18:20:12.447Z,102581.64
2019-03-29T18:22:41.623Z,102581.45
2019-03-29T18:25:11.860Z,102583.27
2019-03-29T18:27:41.067Z,102582.77
2019-03-29T18:30:11.404Z,102574.52
2019-03-29T18:32:40.902Z,102577.96
2019-03-29T18:35:10.603Z,102574.44
2019-03-29T18:37:40.977Z,102572.05
2019-03-29T18:40:48.699Z,102567.48
2019-03-29T18:43:18.245Z,102568.08
2019-03-29T18:45:47.395Z,102567.11
2019-03-29T18:48:16.846Z,102574.49
2019-03-29T18:50:46.039Z,102573.94
2019-03-29T18:53:15.194Z,102568.30
2019-03-29T18:55:44.751Z,102576.36
2019-03-29T18:58:13.933Z,102569.64
2019-03-29T19:00:43.452Z,102572.08
2019-03-29T19:03:13.060Z,102563.77
2019-03-29T19:05:42.996Z,102569.48
2019-03-29T19:08:12.130Z,102571.66
2019-03-29T19:10:41.678Z,102572.82
2019-03-29T19:13:11.150Z,102575.85
2019-03-29T19:15:40.997Z,102576.61
2019-03-29T19:18:10.521Z,102574.91
2019-03-29T19:20:39.775Z,102575.16
2019-03-29T19:23:09.418Z,102577.94
2019-03-29T19:25:39.046Z,102577.30
2019-03-29T19:28:08.527Z,102578.73
2019-03-29T19:30:38.050Z,102579.06
2019-03-29T19:33:07.245Z,102577.81
2019-03-29T19:35:36.413Z,102577.09
2019-03-29T19:38:05.933Z,102581.55
2019-03-29T19:40:35.104Z,102574.02
2019-03-29T19:43:04.254Z,102578.48
2019-03-29T19:45:34.540Z,102580.61
2019-03-29T19:48:04.276Z,102579.14
2019-03-29T19:50:34.178Z,102578.84
2019-03-29T19:53:04.104Z,102582.13
2019-03-29T19:55:33.317Z,102579.91
2019-03-29T19:58:02.491Z,102580.23
2019-03-29T20:00:39.473Z,102579.50
2019-03-29T20:03:09.197Z,102580.02
2019-03-29T20:05:38.508Z,102574.37
2019-03-29T20:08:08.061Z,102573.70
2019-03-29T20:10:37.603Z,102568.92
2019-03-29T20:13:07.211Z,102568.92
2019-03-29T20:15:36.429Z,102567.25
2019-03-29T20:18:05.693Z,102565.39
2019-03-29T20:20:34.891Z,102566.10
2019-03-29T20:23:04.516Z,102561.80
2019-03-29T20:25:34.008Z,102554.55
2019-03-29T20:28:03.186Z,102554.55
2019-03-29T20:30:32.721Z,102563.36
2019-03-29T20:33:02.227Z,102554.19
2019-03-29T20:35:31.429Z,102560.34
2019-03-29T20:38:01.035Z,102558.99
2019-03-29T20:40:32.231Z,102554.96
2019-03-29T20:43:01.938Z,102558.33
2019-03-29T20:45:31.401Z,102550.78
2019-03-29T20:48:00.658Z,102554.36
2019-03-29T20:50:29.845Z,102557.98
2019-03-29T20:52:58.990Z,102554.63
2019-03-29T20:55:28.157Z,102558.12
2019-03-29T20:57:57.702Z,102558.71
2019-03-29T21:00:26.877Z,102555.17
2019-03-29T21:02:56.034Z,102546.66
2019-03-29T21:05:25.290Z,102551.20
2019-03-29T21:07:55.219Z,102551.45
2019-03-29T21:10:24.468Z,102548.61
2019-03-29T21:12:53.909Z,102551.14
2019-03-29T21:15:23.518Z,102548.91
2019-03-29T21:17:57.058Z,102554.73
2019-03-29T21:20:23.965Z,102549.73
2019-03-29T21:22:53.145Z,102550.98
2019-03-29T21:25:22.329Z,102544.63
2019-03-29T21:27:51.761Z,102552.58
2019-03-29T21:30:21.024Z,102542.86
2019-03-29T21:32:50.293Z,102542.86
2019-03-29T21:35:19.764Z,102547.69
2019-03-29T21:37:49.170Z,102546.23
2019-03-29T21:40:18.381Z,102546.39
2019-03-29T21:42:47.564Z,102546.74
2019-03-29T21:45:28.002Z,102536.50
2019-03-29T21:48:01.537Z,102535.61
2019-03-29T21:50:19.248Z,102535.88
2019-03-29T21:52:48.731Z,102533.34
2019-03-29T21:55:18.582Z,102534.63
2019-03-29T21:57:51.666Z,102532.88
2019-03-29T22:00:20.914Z,102534.94
2019-03-29T22:02:50.401Z,102527.84
2019-03-29T22:05:19.980Z,102530.17
2019-03-29T22:07:49.187Z,102530.66
2019-03-29T22:10:18.688Z,102525.58
2019-03-29T22:12:47.850Z,102529.17
2019-03-29T22:15:17.283Z,102523.23
2019-03-29T22:17:46.480Z,102526.24
2019-03-29T22:20:15.995Z,102518.16
2019-03-29T22:22:45.181Z,102518.76
2019-03-29T22:25:14.795Z,102513.70
2019-03-29T22:27:43.957Z,102513.45
2019-03-29T22:30:13.489Z,102498.56
2019-03-29T22:32:43.026Z,102498.56
2019-03-29T22:35:12.614Z,102504.86
2019-03-29T22:37:42.102Z,102504.86
2019-03-29T22:40:16.438Z,102494.14
2019-03-29T22:42:45.607Z,102486.23
2019-03-29T22:45:15.142Z,102486.23
2019-03-29T22:47:44.332Z,102479.74
2019-03-29T22:50:14.317Z,102479.74
2019-03-29T22:52:44.067Z,102477.70
2019-03-29T22:55:13.572Z,102474.08
2019-03-29T22:57:43.198Z,102478.09
2019-03-29T23:00:20.059Z,102464.72
2019-03-29T23:02:49.224Z,102464.72
2019-03-29T23:05:18.971Z,102464.64
2019-03-29T23:07:48.517Z,102466.72
2019-03-29T23:10:17.983Z,102466.72
2019-03-29T23:12:47.262Z,102468.59
2019-03-29T23:15:16.895Z,102459.84
2019-03-29T23:17:46.377Z,102456.98
2019-03-29T23:20:15.556Z,102456.98
2019-03-29T23:22:45.307Z,102459.38
2019-03-29T23:25:15.120Z,102459.38
2019-03-29T23:27:44.293Z,102458.33
2019-03-29T23:30:13.722Z,102453.33
2019-03-29T23:32:42.901Z,102455.63
2019-03-29T23:35:12.248Z,102450.91
2019-03-29T23:37:41.729Z,102450.91
2019-03-29T23:40:11.441Z,102448.49
2019-03-29T23:42:40.931Z,102446.63
2019-03-29T23:45:10.172Z,102437.72
2019-03-29T23:47:39.391Z,102437.72
2019-03-29T23:50:08.950Z,102430.85
2019-03-29T23:52:38.145Z,102425.39
2019-03-29T23:55:08.010Z,102425.39
2019-03-29T23:57:37.464Z,102432.45
